sensor_id;sensor_type;location;lat;lon;timestamp;temperature;humidity
23188;DHT22;11762;59.878;17.686;2022-10-03T19:43:37;9.50;99.90
23188;DHT22;11762;59.878;17.686;2022-10-03T19:46:48;9.50;99.90
23188;DHT22;11762;59.878;17.686;2022-10-03T19:49:57;9.50;99.90
23188;DHT22;11762;59.878;17.686;2022-10-03T19:52:46;9.50;99.90
23188;DHT22;11762;59.878;17.686;2022-10-03T19:55:35;9.50;99.90
23188;DHT22;11762;59.878;17.686;2022-10-03T19:58:24;9.60;99.90
23188;DHT22;11762;59.878;17.686;2022-10-03T20:01:13;9.60;99.90
23188;DHT22;11762;59.878;17.686;2022-10-03T20:04:01;9.60;99.90
23188;DHT22;11762;59.878;17.686;2022-10-03T20:06:49;9.60;99.90
23188;DHT22;11762;59.878;17.686;2022-10-03T20:09:38;9.60;99.90
23188;DHT22;11762;59.878;17.686;2022-10-03T20:12:28;9.50;99.90
23188;DHT22;11762;59.878;17.686;2022-10-03T20:15:21;9.50;99.90
23188;DHT22;11762;59.878;17.686;2022-10-03T20:18:22;9.50;99.90
23188;DHT22;11762;59.878;17.686;2022-10-03T20:21:11;9.40;99.90
23188;DHT22;11762;59.878;17.686;2022-10-03T20:24:09;9.40;99.90
23188;DHT22;11762;59.878;17.686;2022-10-03T20:27:07;9.30;99.90
23188;DHT22;11762;59.878;17.686;2022-10-03T20:30:10;9.30;99.90
23188;DHT22;11762;59.878;17.686;2022-10-03T20:33:04;9.30;99.90
23188;DHT22;11762;59.878;17.686;2022-10-03T20:35:56;9.20;99.90
23188;DHT22;11762;59.878;17.686;2022-10-03T20:39:05;9.20;99.90
23188;DHT22;11762;59.878;17.686;2022-10-03T20:41:59;9.20;99.90
23188;DHT22;11762;59.878;17.686;2022-10-03T20:45:00;9.10;99.90
23188;DHT22;11762;59.878;17.686;2022-10-03T20:47:56;9.00;99.90
23188;DHT22;11762;59.878;17.686;2022-10-03T20:50:45;9.00;99.90
23188;DHT22;11762;59.878;17.686;2022-10-03T20:53:41;9.00;99.90
23188;DHT22;11762;59.878;17.686;2022-10-03T20:56:34;9.00;99.90
23188;DHT22;11762;59.878;17.686;2022-10-03T20:59:30;8.90;99.90
23188;DHT22;11762;59.878;17.686;2022-10-03T21:02:28;8.90;99.90
23188;DHT22;11762;59.878;17.686;2022-10-03T21:05:20;8.80;99.90
23188;DHT22;11762;59.878;17.686;2022-10-03T21:08:15;8.80;99.90
23188;DHT22;11762;59.878;17.686;2022-10-03T21:11:16;8.80;99.90
23188;DHT22;11762;59.878;17.686;2022-10-03T21:14:13;8.70;99.90
23188;DHT22;11762;59.878;17.686;2022-10-03T21:17:04;8.60;99.90
23188;DHT22;11762;59.878;17.686;2022-10-03T21:19:54;8.60;99.90
23188;DHT22;11762;59.878;17.686;2022-10-03T21:22:46;8.60;99.90
23188;DHT22;11762;59.878;17.686;2022-10-03T21:25:35;8.60;99.90
23188;DHT22;11762;59.878;17.686;2022-10-03T21:28:30;8.50;99.90
23188;DHT22;11762;59.878;17.686;2022-10-03T21:31:28;8.50;99.90
23188;DHT22;11762;59.878;17.686;2022-10-03T21:34:22;8.40;99.90
23188;DHT22;11762;59.878;17.686;2022-10-03T21:37:15;8.40;99.90
23188;DHT22;11762;59.878;17.686;2022-10-03T21:40:17;8.40;99.90
23188;DHT22;11762;59.878;17.686;2022-10-03T21:43:11;8.30;99.90
23188;DHT22;11762;59.878;17.686;2022-10-03T21:46:09;8.30;99.90
23188;DHT22;11762;59.878;17.686;2022-10-03T21:49:06;8.20;99.90
23188;DHT22;11762;59.878;17.686;2022-10-03T21:52:17;8.20;99.90
23188;DHT22;11762;59.878;17.686;2022-10-03T21:55:31;8.20;99.90
23188;DHT22;11762;59.878;17.686;2022-10-03T21:58:55;8.20;99.90
23188;DHT22;11762;59.878;17.686;2022-10-03T22:01:51;8.10;99.90
23188;DHT22;11762;59.878;17.686;2022-10-03T22:04:44;8.10;99.90
23188;DHT22;11762;59.878;17.686;2022-10-03T22:07:36;8.00;99.90
23188;DHT22;11762;59.878;17.686;2022-10-03T22:10:26;8.00;99.90
23188;DHT22;11762;59.878;17.686;2022-10-03T22:13:16;7.90;99.90
23188;DHT22;11762;59.878;17.686;2022-10-03T22:16:07;7.90;99.90
23188;DHT22;11762;59.878;17.686;2022-10-03T22:19:10;7.90;99.90
23188;DHT22;11762;59.878;17.686;2022-10-03T22:22:26;7.80;99.90
23188;DHT22;11762;59.878;17.686;2022-10-03T22:25:28;7.70;99.90
23188;DHT22;11762;59.878;17.686;2022-10-03T22:28:26;7.70;99.90
23188;DHT22;11762;59.878;17.686;2022-10-03T22:31:21;7.70;99.90
23188;DHT22;11762;59.878;17.686;2022-10-03T22:34:21;7.60;99.90
23188;DHT22;11762;59.878;17.686;2022-10-03T22:37:11;7.60;99.90
23188;DHT22;11762;59.878;17.686;2022-10-03T22:40:00;7.60;99.90
23188;DHT22;11762;59.878;17.686;2022-10-03T22:42:51;7.50;99.90
23188;DHT22;11762;59.878;17.686;2022-10-03T22:45:41;7.50;99.90
23188;DHT22;11762;59.878;17.686;2022-10-03T22:48:33;7.50;99.90
23188;DHT22;11762;59.878;17.686;2022-10-03T22:51:23;7.50;99.90
23188;DHT22;11762;59.878;17.686;2022-10-03T22:54:12;7.50;99.90
23188;DHT22;11762;59.878;17.686;2022-10-03T22:57:05;7.50;99.90
23188;DHT22;11762;59.878;17.686;2022-10-03T22:59:55;7.40;99.90
23188;DHT22;11762;59.878;17.686;2022-10-03T23:02:48;7.40;99.90
23188;DHT22;11762;59.878;17.686;2022-10-03T23:05:52;7.40;99.90
23188;DHT22;11762;59.878;17.686;2022-10-03T23:08:52;7.40;99.90
23188;DHT22;11762;59.878;17.686;2022-10-03T23:11:44;7.40;99.90
23188;DHT22;11762;59.878;17.686;2022-10-03T23:14:35;7.40;99.90
23188;DHT22;11762;59.878;17.686;2022-10-03T23:20:57;7.30;99.90
23188;DHT22;11762;59.878;17.686;2022-10-03T23:23:57;7.30;99.90
23188;DHT22;11762;59.878;17.686;2022-10-03T23:27:08;7.20;99.90
23188;DHT22;11762;59.878;17.686;2022-10-03T23:33:47;7.10;99.90
23188;DHT22;11762;59.878;17.686;2022-10-03T23:36:59;7.00;99.90
23188;DHT22;11762;59.878;17.686;2022-10-03T23:40:22;7.00;99.90
23188;DHT22;11762;59.878;17.686;2022-10-03T23:43:25;7.00;99.90
23188;DHT22;11762;59.878;17.686;2022-10-03T23:46:15;7.00;99.90
23188;DHT22;11762;59.878;17.686;2022-10-03T23:49:04;7.00;99.90
23188;DHT22;11762;59.878;17.686;2022-10-03T23:51:52;7.00;99.90
23188;DHT22;11762;59.878;17.686;2022-10-03T23:54:40;7.00;99.90
23188;DHT22;11762;59.878;17.686;2022-10-03T23:57:33;7.00;99.90
